sensor_id;sensor_type;location;lat;lon;timestamp;pressure;altitude;pressure_sealevel;temperature;humidity
64876;BME280;51369;49.862;9.908;2024-02-21T00:01:27;99198.66;;;8.95;72.62
64876;BME280;51369;49.862;9.908;2024-02-21T00:03:53;99203.13;;;8.96;73.20
64876;BME280;51369;49.862;9.908;2024-02-21T00:06:18;99191.44;;;8.97;72.54
64876;BME280;51369;49.862;9.908;2024-02-21T00:08:43;99199.53;;;8.96;73.03
64876;BME280;51369;49.862;9.908;2024-02-21T00:11:09;99188.81;;;8.94;73.30
64876;BME280;51369;49.862;9.908;2024-02-21T00:13:35;99190.56;;;8.95;73.46
64876;BME280;51369;49.862;9.908;2024-02-21T00:16:01;99187.88;;;8.95;73.30
64876;BME280;51369;49.862;9.908;2024-02-21T00:18:26;99185.19;;;8.95;72.53
64876;BME280;51369;49.862;9.908;2024-02-21T00:20:52;99177.09;;;8.95;73.27
64876;BME280;51369;49.862;9.908;2024-02-21T00:23:17;99176.22;;;8.95;72.75
64876;BME280;51369;49.862;9.908;2024-02-21T00:25:43;99176.25;;;8.93;73.49
64876;BME280;51369;49.862;9.908;2024-02-21T00:28:08;99173.56;;;8.93;73.17
64876;BME280;51369;49.862;9.908;2024-02-21T00:30:34;99175.41;;;8.91;73.15
64876;BME280;51369;49.862;9.908;2024-02-21T00:32:59;99170.03;;;8.91;73.10
64876;BME280;51369;49.862;9.908;2024-02-21T00:35:24;99174.59;;;8.88;73.25
64876;BME280;51369;49.862;9.908;2024-02-21T00:37:51;99169.28;;;8.85;73.04
64876;BME280;51369;49.862;9.908;2024-02-21T00:40:16;99167.47;;;8.85;73.25
64876;BME280;51369;49.862;9.908;2024-02-21T00:42:45;99163.88;;;8.85;73.28
64876;BME280;51369;49.862;9.908;2024-02-21T00:45:11;99149.63;;;8.81;72.85
64876;BME280;51369;49.862;9.908;2024-02-21T00:47:36;99143.34;;;8.80;73.24
64876;BME280;51369;49.862;9.908;2024-02-21T00:50:02;99143.38;;;8.79;73.22
64876;BME280;51369;49.862;9.908;2024-02-21T00:52:27;99141.63;;;8.76;73.67
64876;BME280;51369;49.862;9.908;2024-02-21T00:54:53;99142.56;;;8.75;73.37
64876;BME280;51369;49.862;9.908;2024-02-21T00:57:18;99138.97;;;8.75;73.98
64876;BME280;51369;49.862;9.908;2024-02-21T00:59:43;99130.06;;;8.73;73.40
64876;BME280;51369;49.862;9.908;2024-02-21T01:02:09;99131.78;;;8.75;73.35
64876;BME280;51369;49.862;9.908;2024-02-21T01:04:35;99122.91;;;8.72;73.38
64876;BME280;51369;49.862;9.908;2024-02-21T01:07:00;99130.13;;;8.70;73.91
64876;BME280;51369;49.862;9.908;2024-02-21T01:09:25;99121.28;;;8.66;74.01
64876;BME280;51369;49.862;9.908;2024-02-21T01:11:51;99115.03;;;8.64;74.00
64876;BME280;51369;49.862;9.908;2024-02-21T01:14:16;99104.31;;;8.63;73.77
64876;BME280;51369;49.862;9.908;2024-02-21T01:16:42;99102.53;;;8.62;73.82
64876;BME280;51369;49.862;9.908;2024-02-21T01:19:07;99098.06;;;8.61;74.43
64876;BME280;51369;49.862;9.908;2024-02-21T01:21:32;99098.06;;;8.61;74.82
64876;BME280;51369;49.862;9.908;2024-02-21T01:23:58;99090.00;;;8.61;74.53
64876;BME280;51369;49.862;9.908;2024-02-21T01:26:23;99097.16;;;8.62;74.91
64876;BME280;51369;49.862;9.908;2024-02-21T01:28:48;99097.09;;;8.65;74.82
64876;BME280;51369;49.862;9.908;2024-02-21T01:31:14;99096.09;;;8.67;74.02
64876;BME280;51369;49.862;9.908;2024-02-21T01:33:40;99096.16;;;8.66;74.18
64876;BME280;51369;49.862;9.908;2024-02-21T01:36:06;99092.47;;;8.68;73.90
64876;BME280;51369;49.862;9.908;2024-02-21T01:38:32;99093.31;;;8.70;73.91
64876;BME280;51369;49.862;9.908;2024-02-21T01:40:58;99087.06;;;8.70;74.48
64876;BME280;51369;49.862;9.908;2024-02-21T01:43:23;99093.28;;;8.72;74.69
64876;BME280;51369;49.862;9.908;2024-02-21T01:45:58;99084.38;;;8.70;74.74
64876;BME280;51369;49.862;9.908;2024-02-21T01:48:24;99083.44;;;8.71;74.46
64876;BME280;51369;49.862;9.908;2024-02-21T01:50:51;99085.22;;;8.72;74.25
64876;BME280;51369;49.862;9.908;2024-02-21T01:53:26;99078.03;;;8.72;75.08
64876;BME280;51369;49.862;9.908;2024-02-21T01:55:52;99072.63;;;8.72;75.43
64876;BME280;51369;49.862;9.908;2024-02-21T01:58:18;99061.03;;;8.70;75.61
64876;BME280;51369;49.862;9.908;2024-02-21T02:00:46;99054.81;;;8.67;75.88
64876;BME280;51369;49.862;9.908;2024-02-21T02:03:12;99050.41;;;8.66;76.22
64876;BME280;51369;49.862;9.908;2024-02-21T02:05:48;99056.75;;;8.63;76.74
64876;BME280;51369;49.862;9.908;2024-02-21T02:08:15;99053.19;;;8.61;76.88
64876;BME280;51369;49.862;9.908;2024-02-21T02:10:41;99064.91;;;8.59;77.38
64876;BME280;51369;49.862;9.908;2024-02-21T02:13:08;99072.13;;;8.58;77.71
64876;BME280;51369;49.862;9.908;2024-02-21T02:15:47;99074.88;;;8.55;77.60
64876;BME280;51369;49.862;9.908;2024-02-21T02:18:14;99061.47;;;8.54;77.62
64876;BME280;51369;49.862;9.908;2024-02-21T02:20:40;99068.69;;;8.52;77.82
64876;BME280;51369;49.862;9.908;2024-02-21T02:23:30;99066.03;;;8.50;78.32
64876;BME280;51369;49.862;9.908;2024-02-21T02:25:59;99062.38;;;8.53;78.26
64876;BME280;51369;49.862;9.908;2024-02-21T02:28:26;99058.00;;;8.48;78.92
64876;BME280;51369;49.862;9.908;2024-02-21T02:30:52;99040.13;;;8.44;78.68
64876;BME280;51369;49.862;9.908;2024-02-21T02:33:18;99041.09;;;8.42;79.31
64876;BME280;51369;49.862;9.908;2024-02-21T02:35:43;99037.56;;;8.40;78.94
64876;BME280;51369;49.862;9.908;2024-02-21T02:38:09;99034.91;;;8.38;79.82
64876;BME280;51369;49.862;9.908;2024-02-21T02:40:35;99025.97;;;8.36;79.93
64876;BME280;51369;49.862;9.908;2024-02-21T02:43:01;99007.19;;;8.35;79.69
64876;BME280;51369;49.862;9.908;2024-02-21T02:45:26;99009.03;;;8.33;79.84
64876;BME280;51369;49.862;9.908;2024-02-21T02:47:52;99013.50;;;8.32;79.99
64876;BME280;51369;49.862;9.908;2024-02-21T02:50:19;99019.78;;;8.31;79.62
64876;BME280;51369;49.862;9.908;2024-02-21T02:52:45;99015.28;;;8.32;80.12
64876;BME280;51369;49.862;9.908;2024-02-21T02:55:10;99012.63;;;8.30;80.07
64876;BME280;51369;49.862;9.908;2024-02-21T02:57:35;99019.78;;;8.31;80.11
64876;BME280;51369;49.862;9.908;2024-02-21T03:00:01;99030.59;;;8.30;80.40
64876;BME280;51369;49.862;9.908;2024-02-21T03:02:26;99027.84;;;8.31;80.07
64876;BME280;51369;49.862;9.908;2024-02-21T03:04:51;99016.22;;;8.31;80.51
64876;BME280;51369;49.862;9.908;2024-02-21T03:07:17;99024.25;;;8.32;80.28
64876;BME280;51369;49.862;9.908;2024-02-21T03:09:42;99022.47;;;8.31;80.68
64876;BME280;51369;49.862;9.908;2024-02-21T03:12:08;99026.09;;;8.30;79.95
64876;BME280;51369;49.862;9.908;2024-02-21T03:14:35;99028.78;;;8.30;80.54
64876;BME280;51369;49.862;9.908;2024-02-21T03:17:01;99018.94;;;8.29;80.67
64876;BME280;51369;49.862;9.908;2024-02-21T03:19:27;99018.06;;;8.29;80.08
64876;BME280;51369;49.862;9.908;2024-02-21T03:21:53;99010.91;;;8.28;80.28
64876;BME280;51369;49.862;9.908;2024-02-21T03:24:20;99009.16;;;8.25;80.12
64876;BME280;51369;49.862;9.908;2024-02-21T03:26:46;99002.94;;;8.23;80.27
64876;BME280;51369;49.862;9.908;2024-02-21T03:29:14;99002.06;;;8.23;80.58
64876;BME280;51369;49.862;9.908;2024-02-21T03:31:40;99002.09;;;8.21;80.88
64876;BME280;51369;49.862;9.908;2024-02-21T03:34:05;98996.75;;;8.20;80.35
64876;BME280;51369;49.862;9.908;2024-02-21T03:36:31;98992.28;;;8.19;80.66
64876;BME280;51369;49.862;9.908;2024-02-21T03:38:56;98992.34;;;8.15;80.87
64876;BME280;51369;49.862;9.908;2024-02-21T03:41:22;98988.78;;;8.15;80.78
64876;BME280;51369;49.862;9.908;2024-02-21T03:43:47;98992.41;;;8.14;81.05
64876;BME280;51369;49.862;9.908;2024-02-21T03:46:14;98979.91;;;8.11;80.94
64876;BME280;51369;49.862;9.908;2024-02-21T03:48:40;98977.22;;;8.11;81.20
64876;BME280;51369;49.862;9.908;2024-02-21T03:51:06;98976.31;;;8.11;81.20
64876;BME280;51369;49.862;9.908;2024-02-21T03:53:31;98973.66;;;8.09;81.14
64876;BME280;51369;49.862;9.908;2024-02-21T03:55:57;98980.81;;;8.10;80.85
64876;BME280;51369;49.862;9.908;2024-02-21T03:58:27;98965.56;;;8.11;81.07
64876;BME280;51369;49.862;9.908;2024-02-21T04:00:53;98963.84;;;8.08;81.26
64876;BME280;51369;49.862;9.908;2024-02-21T04:03:18;98955.72;;;8.10;80.94
64876;BME280;51369;49.862;9.908;2024-02-21T04:05:43;98962.03;;;8.09;81.17
64876;BME280;51369;49.862;9.908;2024-02-21T04:08:09;98958.47;;;8.08;81.44
64876;BME280;51369;49.862;9.908;2024-02-21T04:10:34;98946.84;;;8.06;80.91
64876;BME280;51369;49.862;9.908;2024-02-21T04:13:00;98952.34;;;8.02;81.03
64876;BME280;51369;49.862;9.908;2024-02-21T04:15:25;98956.75;;;8.04;80.72
64876;BME280;51369;49.862;9.908;2024-02-21T04:17:51;98953.19;;;8.04;81.37
64876;BME280;51369;49.862;9.908;2024-02-21T04:20:18;98948.72;;;8.03;80.78
64876;BME280;51369;49.862;9.908;2024-02-21T04:22:43;98953.22;;;8.02;81.36
64876;BME280;51369;49.862;9.908;2024-02-21T04:25:10;98936.28;;;7.99;80.93
64876;BME280;51369;49.862;9.908;2024-02-21T04:27:36;98935.44;;;7.97;81.25
64876;BME280;51369;49.862;9.908;2024-02-21T04:30:03;98931.91;;;7.93;81.18
64876;BME280;51369;49.862;9.908;2024-02-21T04:32:28;98933.84;;;7.88;80.95
64876;BME280;51369;49.862;9.908;2024-02-21T04:34:54;98924.97;;;7.84;81.03
64876;BME280;51369;49.862;9.908;2024-02-21T04:37:20;98928.66;;;7.79;81.28
64876;BME280;51369;49.862;9.908;2024-02-21T04:39:45;98928.81;;;7.73;81.30
64876;BME280;51369;49.862;9.908;2024-02-21T04:42:11;98934.19;;;7.73;81.15
64876;BME280;51369;49.862;9.908;2024-02-21T04:44:37;98937.00;;;7.67;81.87
64876;BME280;51369;49.862;9.908;2024-02-21T04:47:03;98940.66;;;7.64;82.01
64876;BME280;51369;49.862;9.908;2024-02-21T04:49:29;98938.03;;;7.61;81.65
64876;BME280;51369;49.862;9.908;2024-02-21T04:51:54;98941.63;;;7.60;81.79
64876;BME280;51369;49.862;9.908;2024-02-21T04:54:19;98938.97;;;7.59;82.16
64876;BME280;51369;49.862;9.908;2024-02-21T04:56:45;98936.28;;;7.59;82.51
64876;BME280;51369;49.862;9.908;2024-02-21T04:59:11;98933.53;;;7.62;82.55
64876;BME280;51369;49.862;9.908;2024-02-21T05:01:36;98938.84;;;7.65;83.16
64876;BME280;51369;49.862;9.908;2024-02-21T05:04:01;98939.66;;;7.68;83.17
64876;BME280;51369;49.862;9.908;2024-02-21T05:06:28;98941.41;;;7.71;82.97
64876;BME280;51369;49.862;9.908;2024-02-21T05:08:53;98933.28;;;7.72;83.21
64876;BME280;51369;49.862;9.908;2024-02-21T05:11:21;98929.66;;;7.75;83.34
64876;BME280;51369;49.862;9.908;2024-02-21T05:13:47;98927.75;;;7.80;83.16
64876;BME280;51369;49.862;9.908;2024-02-21T05:16:12;98924.97;;;7.84;82.75
64876;BME280;51369;49.862;9.908;2024-02-21T05:18:38;98928.50;;;7.87;82.89
64876;BME280;51369;49.862;9.908;2024-02-21T05:21:05;98916.84;;;7.86;83.24
64876;BME280;51369;49.862;9.908;2024-02-21T05:23:30;98915.91;;;7.89;82.85
64876;BME280;51369;49.862;9.908;2024-02-21T05:25:55;98911.47;;;7.86;82.70
64876;BME280;51369;49.862;9.908;2024-02-21T05:28:21;98907.94;;;7.84;82.83
64876;BME280;51369;49.862;9.908;2024-02-21T05:30:46;98899.84;;;7.86;82.78
64876;BME280;51369;49.862;9.908;2024-02-21T05:33:12;98898.91;;;7.87;82.58
64876;BME280;51369;49.862;9.908;2024-02-21T05:35:37;98901.66;;;7.85;83.04
64876;BME280;51369;49.862;9.908;2024-02-21T05:38:03;98897.16;;;7.86;82.95
64876;BME280;51369;49.862;9.908;2024-02-21T05:40:36;98902.50;;;7.87;82.80
64876;BME280;51369;49.862;9.908;2024-02-21T05:43:01;98898.88;;;7.88;82.95
64876;BME280;51369;49.862;9.908;2024-02-21T05:45:27;98890.78;;;7.90;83.10
64876;BME280;51369;49.862;9.908;2024-02-21T05:47:53;98893.47;;;7.90;83.12
64876;BME280;51369;49.862;9.908;2024-02-21T05:50:18;98898.84;;;7.90;82.78
64876;BME280;51369;49.862;9.908;2024-02-21T05:52:44;98892.56;;;7.91;82.64
64876;BME280;51369;49.862;9.908;2024-02-21T05:55:09;98892.56;;;7.91;82.46
64876;BME280;51369;49.862;9.908;2024-02-21T05:57:35;98890.78;;;7.90;82.64
64876;BME280;51369;49.862;9.908;2024-02-21T06:00:03;98891.75;;;7.87;82.82
64876;BME280;51369;49.862;9.908;2024-02-21T06:02:37;98888.19;;;7.85;82.44
64876;BME280;51369;49.862;9.908;2024-02-21T06:05:03;98881.94;;;7.84;82.73
64876;BME280;51369;49.862;9.908;2024-02-21T06:07:30;98882.91;;;7.82;82.52
64876;BME280;51369;49.862;9.908;2024-02-21T06:09:55;98878.47;;;7.79;82.53
64876;BME280;51369;49.862;9.908;2024-02-21T06:12:21;98885.69;;;7.77;82.48
64876;BME280;51369;49.862;9.908;2024-02-21T06:14:46;98892.88;;;7.77;82.57
64876;BME280;51369;49.862;9.908;2024-02-21T06:17:11;98889.31;;;7.76;82.25
64876;BME280;51369;49.862;9.908;2024-02-21T06:19:40;98893.78;;;7.76;82.84
64876;BME280;51369;49.862;9.908;2024-02-21T06:22:07;98891.06;;;7.77;82.86
64876;BME280;51369;49.862;9.908;2024-02-21T06:24:34;98890.16;;;7.78;83.00
64876;BME280;51369;49.862;9.908;2024-02-21T06:26:59;98894.56;;;7.81;82.88
64876;BME280;51369;49.862;9.908;2024-02-21T06:29:25;98882.91;;;7.82;83.34
64876;BME280;51369;49.862;9.908;2024-02-21T06:31:50;98883.75;;;7.84;83.08
64876;BME280;51369;49.862;9.908;2024-02-21T06:34:15;98882.81;;;7.85;83.04
64876;BME280;51369;49.862;9.908;2024-02-21T06:36:42;98879.22;;;7.86;82.85
64876;BME280;51369;49.862;9.908;2024-02-21T06:39:07;98879.22;;;7.86;82.34
64876;BME280;51369;49.862;9.908;2024-02-21T06:41:32;98880.03;;;7.90;82.38
64876;BME280;51369;49.862;9.908;2024-02-21T06:43:59;98882.69;;;7.91;82.42
64876;BME280;51369;49.862;9.908;2024-02-21T06:46:28;98877.31;;;7.91;81.95
64876;BME280;51369;49.862;9.908;2024-02-21T06:48:54;98870.09;;;7.93;82.49
64876;BME280;51369;49.862;9.908;2024-02-21T06:51:22;98871.84;;;7.94;82.05
64876;BME280;51369;49.862;9.908;2024-02-21T06:53:47;98865.59;;;7.94;82.71
64876;BME280;51369;49.862;9.908;2024-02-21T06:56:13;98867.34;;;7.95;82.27
64876;BME280;51369;49.862;9.908;2024-02-21T06:58:39;98861.06;;;7.96;82.60
64876;BME280;51369;49.862;9.908;2024-02-21T07:01:04;98842.25;;;7.96;82.46
64876;BME280;51369;49.862;9.908;2024-02-21T07:03:30;98840.41;;;7.98;82.87
64876;BME280;51369;49.862;9.908;2024-02-21T07:05:55;98838.47;;;8.03;82.40
64876;BME280;51369;49.862;9.908;2024-02-21T07:08:20;98848.41;;;7.99;82.41
64876;BME280;51369;49.862;9.908;2024-02-21T07:10:47;98848.41;;;7.99;82.25
64876;BME280;51369;49.862;9.908;2024-02-21T07:13:12;98855.56;;;8.00;81.95
64876;BME280;51369;49.862;9.908;2024-02-21T07:15:38;98871.72;;;8.00;81.85
64876;BME280;51369;49.862;9.908;2024-02-21T07:18:04;98871.66;;;8.02;81.62
64876;BME280;51369;49.862;9.908;2024-02-21T07:20:29;98870.75;;;8.03;81.60
64876;BME280;51369;49.862;9.908;2024-02-21T07:22:55;98864.41;;;8.05;81.34
64876;BME280;51369;49.862;9.908;2024-02-21T07:25:20;98863.44;;;8.08;80.97
64876;BME280;51369;49.862;9.908;2024-02-21T07:27:45;98861.59;;;8.10;81.62
64876;BME280;51369;49.862;9.908;2024-02-21T07:30:11;98863.34;;;8.12;81.33
64876;BME280;51369;49.862;9.908;2024-02-21T07:32:36;98850.69;;;8.16;81.42
64876;BME280;51369;49.862;9.908;2024-02-21T07:35:02;98847.03;;;8.19;81.20
64876;BME280;51369;49.862;9.908;2024-02-21T07:37:27;98851.47;;;8.21;81.01
64876;BME280;51369;49.862;9.908;2024-02-21T07:39:52;98851.38;;;8.24;80.09
64876;BME280;51369;49.862;9.908;2024-02-21T07:42:18;98856.69;;;8.27;80.26
64876;BME280;51369;49.862;9.908;2024-02-21T07:44:43;98853.00;;;8.31;80.31
64876;BME280;51369;49.862;9.908;2024-02-21T07:47:09;98855.66;;;8.33;80.46
64876;BME280;51369;49.862;9.908;2024-02-21T07:49:41;98854.72;;;8.35;80.31
64876;BME280;51369;49.862;9.908;2024-02-21T07:52:06;98849.28;;;8.37;79.50
64876;BME280;51369;49.862;9.908;2024-02-21T07:54:33;98860.94;;;8.37;79.35
64876;BME280;51369;49.862;9.908;2024-02-21T07:56:58;98846.59;;;8.37;79.84
64876;BME280;51369;49.862;9.908;2024-02-21T07:59:23;98853.75;;;8.38;79.42
64876;BME280;51369;49.862;9.908;2024-02-21T08:01:49;98851.13;;;8.35;79.39
64876;BME280;51369;49.862;9.908;2024-02-21T08:04:14;98844.91;;;8.33;79.25
64876;BME280;51369;49.862;9.908;2024-02-21T08:06:39;98839.53;;;8.33;79.88
64876;BME280;51369;49.862;9.908;2024-02-21T08:09:05;98834.16;;;8.33;79.91
64876;BME280;51369;49.862;9.908;2024-02-21T08:11:30;98838.59;;;8.34;79.67
64876;BME280;51369;49.862;9.908;2024-02-21T08:13:56;98835.78;;;8.38;80.10
64876;BME280;51369;49.862;9.908;2024-02-21T08:16:22;98831.16;;;8.43;80.62
64876;BME280;51369;49.862;9.908;2024-02-21T08:18:48;98833.66;;;8.51;80.41
64876;BME280;51369;49.862;9.908;2024-02-21T08:21:13;98830.81;;;8.57;81.15
64876;BME280;51369;49.862;9.908;2024-02-21T08:23:39;98830.44;;;8.69;81.00
64876;BME280;51369;49.862;9.908;2024-02-21T08:26:04;98825.66;;;8.79;80.35
64876;BME280;51369;49.862;9.908;2024-02-21T08:28:30;98820.09;;;8.85;80.54
64876;BME280;51369;49.862;9.908;2024-02-21T08:30:55;98813.72;;;8.89;80.24
64876;BME280;51369;49.862;9.908;2024-02-21T08:33:21;98819.84;;;8.94;80.03
64876;BME280;51369;49.862;9.908;2024-02-21T08:35:51;98822.44;;;8.97;80.52
64876;BME280;51369;49.862;9.908;2024-02-21T08:38:18;98810.66;;;9.01;80.29
64876;BME280;51369;49.862;9.908;2024-02-21T08:40:44;98818.50;;;9.09;79.41
64876;BME280;51369;49.862;9.908;2024-02-21T08:43:10;98813.91;;;9.12;79.88
64876;BME280;51369;49.862;9.908;2024-02-21T08:45:35;98811.91;;;9.19;80.03
64876;BME280;51369;49.862;9.908;2024-02-21T08:48:00;98818.00;;;9.26;79.67
64876;BME280;51369;49.862;9.908;2024-02-21T08:50:26;98813.25;;;9.34;79.59
64876;BME280;51369;49.862;9.908;2024-02-21T08:52:51;98813.91;;;9.42;79.26
64876;BME280;51369;49.862;9.908;2024-02-21T08:55:16;98818.09;;;9.52;79.66
64876;BME280;51369;49.862;9.908;2024-02-21T08:57:42;98811.53;;;9.61;79.18
64876;BME280;51369;49.862;9.908;2024-02-21T09:00:08;98810.25;;;9.72;79.12
64876;BME280;51369;49.862;9.908;2024-02-21T09:02:40;98815.25;;;9.85;78.93
64876;BME280;51369;49.862;9.908;2024-02-21T09:05:06;98796.09;;;9.92;78.20
64876;BME280;51369;49.862;9.908;2024-02-21T09:07:32;98793.16;;;10.00;78.62
64876;BME280;51369;49.862;9.908;2024-02-21T09:09:57;98792.91;;;10.07;77.47
64876;BME280;51369;49.862;9.908;2024-02-21T09:12:22;98787.25;;;10.15;77.62
64876;BME280;51369;49.862;9.908;2024-02-21T09:14:48;98786.13;;;10.22;77.74
64876;BME280;51369;49.862;9.908;2024-02-21T09:17:16;98780.47;;;10.30;77.30
64876;BME280;51369;49.862;9.908;2024-02-21T09:19:42;98778.31;;;10.39;76.59
64876;BME280;51369;49.862;9.908;2024-02-21T09:22:08;98775.25;;;10.49;77.46
64876;BME280;51369;49.862;9.908;2024-02-21T09:24:33;98769.69;;;10.53;75.79
64876;BME280;51369;49.862;9.908;2024-02-21T09:26:58;98764.13;;;10.58;75.65
64876;BME280;51369;49.862;9.908;2024-02-21T09:29:25;98770.19;;;10.64;75.54
64876;BME280;51369;49.862;9.908;2024-02-21T09:31:50;98763.69;;;10.70;75.56
64876;BME280;51369;49.862;9.908;2024-02-21T09:34:15;98768.84;;;10.76;75.74
64876;BME280;51369;49.862;9.908;2024-02-21T09:36:41;98759.63;;;10.82;75.27
64876;BME280;51369;49.862;9.908;2024-02-21T09:39:07;98763.09;;;10.85;74.39
64876;BME280;51369;49.862;9.908;2024-02-21T09:41:36;98759.28;;;10.91;74.60
64876;BME280;51369;49.862;9.908;2024-02-21T09:44:04;98750.00;;;10.98;74.19
64876;BME280;51369;49.862;9.908;2024-02-21T09:46:52;98750.78;;;11.01;73.77
64876;BME280;51369;49.862;9.908;2024-02-21T09:49:23;98745.19;;;11.06;73.77
64876;BME280;51369;49.862;9.908;2024-02-21T09:51:53;98745.06;;;11.09;73.35
64876;BME280;51369;49.862;9.908;2024-02-21T09:54:21;98739.50;;;11.14;73.06
64876;BME280;51369;49.862;9.908;2024-02-21T09:56:47;98745.59;;;11.19;72.74
64876;BME280;51369;49.862;9.908;2024-02-21T09:59:16;98738.31;;;11.21;72.11
64876;BME280;51369;49.862;9.908;2024-02-21T10:01:44;98725.56;;;11.24;72.24
64876;BME280;51369;49.862;9.908;2024-02-21T10:04:12;98731.53;;;11.32;72.72
64876;BME280;51369;49.862;9.908;2024-02-21T10:06:37;98727.66;;;11.39;72.34
64876;BME280;51369;49.862;9.908;2024-02-21T10:09:05;98727.66;;;11.39;71.91
64876;BME280;51369;49.862;9.908;2024-02-21T10:11:31;98724.88;;;11.41;71.99
64876;BME280;51369;49.862;9.908;2024-02-21T10:14:07;98717.53;;;11.45;71.69
64876;BME280;51369;49.862;9.908;2024-02-21T10:16:32;98709.03;;;11.54;72.18
64876;BME280;51369;49.862;9.908;2024-02-21T10:18:58;98707.78;;;11.62;71.72
64876;BME280;51369;49.862;9.908;2024-02-21T10:21:24;98706.56;;;11.69;71.82
64876;BME280;51369;49.862;9.908;2024-02-21T10:23:51;98708.94;;;11.79;71.88
64876;BME280;51369;49.862;9.908;2024-02-21T10:26:18;98714.91;;;11.87;71.51
64876;BME280;51369;49.862;9.908;2024-02-21T10:28:44;98709.22;;;11.93;71.91
64876;BME280;51369;49.862;9.908;2024-02-21T10:31:21;98717.06;;;11.99;70.94
64876;BME280;51369;49.862;9.908;2024-02-21T10:34:00;98709.66;;;12.04;70.25
64876;BME280;51369;49.862;9.908;2024-02-21T10:36:28;98698.47;;;12.12;70.36
64876;BME280;51369;49.862;9.908;2024-02-21T10:38:54;98700.00;;;12.17;70.41
64876;BME280;51369;49.862;9.908;2024-02-21T10:41:20;98690.88;;;12.20;70.13
64876;BME280;51369;49.862;9.908;2024-02-21T10:43:49;98688.97;;;12.22;68.74
64876;BME280;51369;49.862;9.908;2024-02-21T10:46:18;98680.66;;;12.26;68.64
64876;BME280;51369;49.862;9.908;2024-02-21T10:48:45;98669.53;;;12.32;69.34
64876;BME280;51369;49.862;9.908;2024-02-21T10:51:15;98676.31;;;12.43;69.34
64876;BME280;51369;49.862;9.908;2024-02-21T10:53:50;98668.56;;;12.54;69.68
64876;BME280;51369;49.862;9.908;2024-02-21T10:56:28;98667.06;;;12.67;69.24
64876;BME280;51369;49.862;9.908;2024-02-21T10:58:57;98654.16;;;12.72;68.95
64876;BME280;51369;49.862;9.908;2024-02-21T11:01:23;98645.75;;;12.78;68.71
64876;BME280;51369;49.862;9.908;2024-02-21T11:03:53;98645.47;;;12.84;68.36
64876;BME280;51369;49.862;9.908;2024-02-21T11:06:20;98638.88;;;12.90;68.28
64876;BME280;51369;49.862;9.908;2024-02-21T11:08:47;98626.88;;;12.95;68.65
64876;BME280;51369;49.862;9.908;2024-02-21T11:11:13;98620.50;;;12.96;67.77
64876;BME280;51369;49.862;9.908;2024-02-21T11:13:42;98606.06;;;12.96;67.16
64876;BME280;51369;49.862;9.908;2024-02-21T11:16:09;98608.78;;;12.96;66.97
64876;BME280;51369;49.862;9.908;2024-02-21T11:18:35;98607.75;;;12.98;66.08
64876;BME280;51369;49.862;9.908;2024-02-21T11:21:01;98595.66;;;13.06;67.41
64876;BME280;51369;49.862;9.908;2024-02-21T11:23:28;98591.75;;;13.11;66.35
64876;BME280;51369;49.862;9.908;2024-02-21T11:26:07;98593.16;;;13.20;66.54
64876;BME280;51369;49.862;9.908;2024-02-21T11:28:32;98590.00;;;13.29;66.71
64876;BME280;51369;49.862;9.908;2024-02-21T11:31:14;98586.03;;;13.36;66.31
64876;BME280;51369;49.862;9.908;2024-02-21T11:33:42;98586.34;;;13.47;66.05
64876;BME280;51369;49.862;9.908;2024-02-21T11:36:09;98577.91;;;13.53;65.78
64876;BME280;51369;49.862;9.908;2024-02-21T11:38:35;98574.00;;;13.59;65.47
64876;BME280;51369;49.862;9.908;2024-02-21T11:41:00;98574.63;;;13.64;65.45
64876;BME280;51369;49.862;9.908;2024-02-21T11:43:26;98565.31;;;13.70;64.67
64876;BME280;51369;49.862;9.908;2024-02-21T11:45:59;98571.22;;;13.78;63.95
64876;BME280;51369;49.862;9.908;2024-02-21T11:48:25;98560.03;;;13.84;64.69
64876;BME280;51369;49.862;9.908;2024-02-21T11:50:54;98558.72;;;13.91;64.21
64876;BME280;51369;49.862;9.908;2024-02-21T11:53:20;98551.81;;;14.01;64.33
64876;BME280;51369;49.862;9.908;2024-02-21T11:55:46;98541.25;;;14.12;64.07
64876;BME280;51369;49.862;9.908;2024-02-21T11:58:11;98530.78;;;14.22;62.92
64876;BME280;51369;49.862;9.908;2024-02-21T12:00:37;98538.50;;;14.29;63.68
64876;BME280;51369;49.862;9.908;2024-02-21T12:03:04;98521.16;;;14.32;62.77
64876;BME280;51369;49.862;9.908;2024-02-21T12:05:29;98528.19;;;14.36;63.76
64876;BME280;51369;49.862;9.908;2024-02-21T12:07:55;98516.53;;;14.34;62.76
64876;BME280;51369;49.862;9.908;2024-02-21T12:10:21;98504.78;;;14.33;62.60
64876;BME280;51369;49.862;9.908;2024-02-21T12:12:47;98500.41;;;14.31;61.45
64876;BME280;51369;49.862;9.908;2024-02-21T12:15:12;98496.72;;;14.32;62.04
64876;BME280;51369;49.862;9.908;2024-02-21T12:17:39;98488.56;;;14.32;61.39
64876;BME280;51369;49.862;9.908;2024-02-21T12:20:05;98494.88;;;14.32;61.68
64876;BME280;51369;49.862;9.908;2024-02-21T12:22:46;98493.13;;;14.31;62.17
64876;BME280;51369;49.862;9.908;2024-02-21T12:25:19;98490.41;;;14.31;62.06
64876;BME280;51369;49.862;9.908;2024-02-21T12:27:46;98488.56;;;14.32;62.02
64876;BME280;51369;49.862;9.908;2024-02-21T12:30:12;98482.19;;;14.33;61.84
64876;BME280;51369;49.862;9.908;2024-02-21T12:32:37;98488.50;;;14.33;61.75
64876;BME280;51369;49.862;9.908;2024-02-21T12:35:03;98478.41;;;14.36;61.52
64876;BME280;51369;49.862;9.908;2024-02-21T12:37:29;98481.03;;;14.37;61.79
64876;BME280;51369;49.862;9.908;2024-02-21T12:39:54;98462.03;;;14.37;61.00
64876;BME280;51369;49.862;9.908;2024-02-21T12:42:20;98452.91;;;14.38;60.59
64876;BME280;51369;49.862;9.908;2024-02-21T12:44:46;98453.78;;;14.39;60.47
64876;BME280;51369;49.862;9.908;2024-02-21T12:47:11;98454.75;;;14.38;60.51
64876;BME280;51369;49.862;9.908;2024-02-21T12:49:37;98439.41;;;14.37;60.92
64876;BME280;51369;49.862;9.908;2024-02-21T12:52:02;98435.91;;;14.34;60.78
64876;BME280;51369;49.862;9.908;2024-02-21T12:54:28;98432.41;;;14.32;60.46
64876;BME280;51369;49.862;9.908;2024-02-21T12:56:55;98427.84;;;14.33;61.02
64876;BME280;51369;49.862;9.908;2024-02-21T12:59:20;98425.06;;;14.34;60.97
64876;BME280;51369;49.862;9.908;2024-02-21T13:01:46;98427.59;;;14.38;60.91
64876;BME280;51369;49.862;9.908;2024-02-21T13:04:12;98420.31;;;14.38;60.60